Terminal Aerodrome Forecast
Issued by NWS Charleston, WV

Current Version | Previous Version | Graphics & Text | Print | Product List | Glossary On
Versions: 1 2 3 4 5 6 7 8 9 10 11 12 13 14 15 16 17 18 19 20 21 22 23 24 25 26 27 28
000
FTUS41 KRLX 300400 AAC
TAFBKW
TAF AMD
KBKW 300405Z 3004/3024 29011G21KT 5SM -SHRA BR BKN008 OVC015
     FM300800 30011G24KT 2SM -SHSN BR OVC007
     FM301100 31011G25KT 3SM -SHSN BR OVC012
     FM301500 31013G27KT 2SM -SHSN BR BKN015
     FM301800 31015G25KT 6SM -SHSN BR BKN025
     FM301900 31015G25KT P6SM -SHSN BKN025=

USA.gov is the U.S. government's official web portal to all federal, state and local government web resources and services.